sensor_id;sensor_type;location;lat;lon;timestamp;P1;durP1;ratioP1;P2;durP2;ratioP2
13849;SDS011;6995;52.618;13.488;2022-12-10T00:14:38;36.77;;;33.37;;
13849;SDS011;6995;52.618;13.488;2022-12-10T00:27:59;33.53;;;30.63;;
13849;SDS011;6995;52.618;13.488;2022-12-10T00:38:07;34.53;;;31.67;;
13849;SDS011;6995;52.618;13.488;2022-12-10T00:41:17;33.90;;;30.90;;
13849;SDS011;6995;52.618;13.488;2022-12-10T00:44:06;35.70;;;32.50;;
13849;SDS011;6995;52.618;13.488;2022-12-10T00:47:21;38.40;;;35.17;;
13849;SDS011;6995;52.618;13.488;2022-12-10T01:00:05;34.80;;;31.90;;
13849;SDS011;6995;52.618;13.488;2022-12-10T01:09:55;35.83;;;32.80;;
13849;SDS011;6995;52.618;13.488;2022-12-10T01:12:50;35.43;;;32.40;;
13849;SDS011;6995;52.618;13.488;2022-12-10T01:28:30;36.93;;;33.70;;
13849;SDS011;6995;52.618;13.488;2022-12-10T01:31:53;37.47;;;34.20;;
13849;SDS011;6995;52.618;13.488;2022-12-10T01:34:32;42.40;;;38.93;;
13849;SDS011;6995;52.618;13.488;2022-12-10T01:37:26;39.83;;;36.43;;
13849;SDS011;6995;52.618;13.488;2022-12-10T01:40:36;43.63;;;39.50;;
13849;SDS011;6995;52.618;13.488;2022-12-10T01:43:26;39.13;;;35.27;;
13849;SDS011;6995;52.618;13.488;2022-12-10T01:46:28;40.27;;;36.30;;
13849;SDS011;6995;52.618;13.488;2022-12-10T01:52:16;38.73;;;35.17;;
13849;SDS011;6995;52.618;13.488;2022-12-10T01:58:47;35.47;;;32.20;;
13849;SDS011;6995;52.618;13.488;2022-12-10T02:04:56;39.10;;;35.50;;
13849;SDS011;6995;52.618;13.488;2022-12-10T02:11:54;42.73;;;38.77;;
13849;SDS011;6995;52.618;13.488;2022-12-10T02:14:55;35.60;;;32.30;;
13849;SDS011;6995;52.618;13.488;2022-12-10T02:20:57;37.63;;;34.17;;
13849;SDS011;6995;52.618;13.488;2022-12-10T02:23:46;35.07;;;31.53;;
13849;SDS011;6995;52.618;13.488;2022-12-10T02:29:43;38.10;;;34.37;;
13849;SDS011;6995;52.618;13.488;2022-12-10T02:32:25;38.63;;;34.80;;
13849;SDS011;6995;52.618;13.488;2022-12-10T02:35:23;40.23;;;36.43;;
13849;SDS011;6995;52.618;13.488;2022-12-10T02:41:23;41.93;;;37.73;;
13849;SDS011;6995;52.618;13.488;2022-12-10T02:44:19;34.87;;;31.57;;
13849;SDS011;6995;52.618;13.488;2022-12-10T02:46:49;41.93;;;38.23;;
13849;SDS011;6995;52.618;13.488;2022-12-10T02:49:26;40.70;;;37.07;;
13849;SDS011;6995;52.618;13.488;2022-12-10T02:51:59;41.97;;;38.07;;
13849;SDS011;6995;52.618;13.488;2022-12-10T02:54:34;37.90;;;34.37;;
13849;SDS011;6995;52.618;13.488;2022-12-10T02:57:08;36.97;;;33.57;;
13849;SDS011;6995;52.618;13.488;2022-12-10T03:11:15;36.87;;;33.23;;
13849;SDS011;6995;52.618;13.488;2022-12-10T03:16:34;43.97;;;40.33;;
13849;SDS011;6995;52.618;13.488;2022-12-10T03:19:04;36.30;;;32.87;;
13849;SDS011;6995;52.618;13.488;2022-12-10T03:21:32;40.00;;;36.27;;
13849;SDS011;6995;52.618;13.488;2022-12-10T03:24:00;40.17;;;36.90;;
13849;SDS011;6995;52.618;13.488;2022-12-10T03:26:33;36.70;;;33.30;;
13849;SDS011;6995;52.618;13.488;2022-12-10T03:29:06;40.23;;;36.37;;
13849;SDS011;6995;52.618;13.488;2022-12-10T03:31:38;41.43;;;37.80;;
13849;SDS011;6995;52.618;13.488;2022-12-10T03:34:05;38.47;;;34.87;;
13849;SDS011;6995;52.618;13.488;2022-12-10T03:36:33;38.80;;;35.47;;
13849;SDS011;6995;52.618;13.488;2022-12-10T03:38:59;38.23;;;34.53;;
13849;SDS011;6995;52.618;13.488;2022-12-10T03:41:29;37.83;;;34.23;;
13849;SDS011;6995;52.618;13.488;2022-12-10T03:43:56;39.07;;;35.37;;
13849;SDS011;6995;52.618;13.488;2022-12-10T03:46:23;38.87;;;35.27;;
13849;SDS011;6995;52.618;13.488;2022-12-10T03:48:51;38.83;;;35.33;;
13849;SDS011;6995;52.618;13.488;2022-12-10T03:51:18;37.60;;;34.10;;
13849;SDS011;6995;52.618;13.488;2022-12-10T03:53:44;39.37;;;35.83;;
13849;SDS011;6995;52.618;13.488;2022-12-10T03:56:12;39.83;;;36.33;;
13849;SDS011;6995;52.618;13.488;2022-12-10T03:58:38;38.97;;;35.30;;
13849;SDS011;6995;52.618;13.488;2022-12-10T04:01:04;40.03;;;36.30;;
13849;SDS011;6995;52.618;13.488;2022-12-10T04:03:30;41.83;;;38.07;;
13849;SDS011;6995;52.618;13.488;2022-12-10T04:06:01;40.17;;;36.33;;
13849;SDS011;6995;52.618;13.488;2022-12-10T04:08:28;37.80;;;34.00;;
13849;SDS011;6995;52.618;13.488;2022-12-10T04:10:53;40.33;;;36.57;;
13849;SDS011;6995;52.618;13.488;2022-12-10T04:13:21;40.67;;;36.97;;
13849;SDS011;6995;52.618;13.488;2022-12-10T04:16:09;38.73;;;35.23;;
13849;SDS011;6995;52.618;13.488;2022-12-10T04:18:53;38.10;;;34.37;;
13849;SDS011;6995;52.618;13.488;2022-12-10T04:21:27;40.73;;;36.97;;
13849;SDS011;6995;52.618;13.488;2022-12-10T04:24:16;37.87;;;34.47;;
13849;SDS011;6995;52.618;13.488;2022-12-10T04:27:03;39.53;;;36.00;;
13849;SDS011;6995;52.618;13.488;2022-12-10T04:29:52;54.57;;;50.17;;
13849;SDS011;6995;52.618;13.488;2022-12-10T04:32:18;38.70;;;35.07;;
13849;SDS011;6995;52.618;13.488;2022-12-10T04:34:45;39.33;;;35.47;;
13849;SDS011;6995;52.618;13.488;2022-12-10T04:37:11;38.70;;;35.17;;
13849;SDS011;6995;52.618;13.488;2022-12-10T04:39:39;38.70;;;35.10;;
13849;SDS011;6995;52.618;13.488;2022-12-10T04:42:05;36.13;;;32.63;;
13849;SDS011;6995;52.618;13.488;2022-12-10T04:44:35;36.40;;;33.10;;
13849;SDS011;6995;52.618;13.488;2022-12-10T04:47:05;37.07;;;33.80;;
13849;SDS011;6995;52.618;13.488;2022-12-10T04:49:35;40.67;;;36.77;;
13849;SDS011;6995;52.618;13.488;2022-12-10T04:52:04;36.03;;;33.00;;
13849;SDS011;6995;52.618;13.488;2022-12-10T04:54:43;37.53;;;34.00;;
13849;SDS011;6995;52.618;13.488;2022-12-10T04:57:09;39.60;;;36.23;;
13849;SDS011;6995;52.618;13.488;2022-12-10T04:59:36;35.30;;;32.43;;
13849;SDS011;6995;52.618;13.488;2022-12-10T05:02:02;33.27;;;30.67;;
13849;SDS011;6995;52.618;13.488;2022-12-10T05:04:29;37.23;;;33.77;;
13849;SDS011;6995;52.618;13.488;2022-12-10T05:06:57;35.30;;;32.20;;
13849;SDS011;6995;52.618;13.488;2022-12-10T05:09:26;35.97;;;32.93;;
13849;SDS011;6995;52.618;13.488;2022-12-10T05:11:51;33.80;;;30.97;;
13849;SDS011;6995;52.618;13.488;2022-12-10T05:14:17;36.07;;;32.97;;
13849;SDS011;6995;52.618;13.488;2022-12-10T05:16:43;31.73;;;29.07;;
13849;SDS011;6995;52.618;13.488;2022-12-10T05:19:11;34.30;;;31.23;;
13849;SDS011;6995;52.618;13.488;2022-12-10T05:21:37;36.03;;;32.97;;
13849;SDS011;6995;52.618;13.488;2022-12-10T05:24:27;33.07;;;30.33;;
13849;SDS011;6995;52.618;13.488;2022-12-10T05:26:56;32.23;;;29.53;;
13849;SDS011;6995;52.618;13.488;2022-12-10T05:29:25;33.27;;;30.67;;
13849;SDS011;6995;52.618;13.488;2022-12-10T05:31:54;36.70;;;33.67;;
13849;SDS011;6995;52.618;13.488;2022-12-10T05:34:22;34.10;;;31.40;;
13849;SDS011;6995;52.618;13.488;2022-12-10T05:36:53;36.53;;;33.60;;
13849;SDS011;6995;52.618;13.488;2022-12-10T05:39:45;35.33;;;32.27;;
13849;SDS011;6995;52.618;13.488;2022-12-10T05:42:13;33.97;;;31.17;;
13849;SDS011;6995;52.618;13.488;2022-12-10T05:44:39;31.20;;;28.70;;
13849;SDS011;6995;52.618;13.488;2022-12-10T05:47:33;33.67;;;31.03;;
13849;SDS011;6995;52.618;13.488;2022-12-10T05:50:02;33.77;;;31.03;;
13849;SDS011;6995;52.618;13.488;2022-12-10T05:52:27;34.67;;;32.07;;
13849;SDS011;6995;52.618;13.488;2022-12-10T05:54:53;34.03;;;31.13;;
13849;SDS011;6995;52.618;13.488;2022-12-10T06:00:16;38.30;;;35.23;;
13849;SDS011;6995;52.618;13.488;2022-12-10T06:02:45;34.47;;;31.70;;
13849;SDS011;6995;52.618;13.488;2022-12-10T06:05:19;36.97;;;34.23;;
13849;SDS011;6995;52.618;13.488;2022-12-10T06:07:53;33.70;;;30.87;;
13849;SDS011;6995;52.618;13.488;2022-12-10T06:10:28;37.40;;;34.53;;
13849;SDS011;6995;52.618;13.488;2022-12-10T06:12:54;34.20;;;31.57;;
13849;SDS011;6995;52.618;13.488;2022-12-10T06:15:24;38.77;;;35.73;;
13849;SDS011;6995;52.618;13.488;2022-12-10T06:17:52;33.20;;;30.60;;
13849;SDS011;6995;52.618;13.488;2022-12-10T06:20:25;33.33;;;30.73;;
13849;SDS011;6995;52.618;13.488;2022-12-10T06:22:51;32.57;;;29.90;;
13849;SDS011;6995;52.618;13.488;2022-12-10T06:25:17;34.03;;;31.17;;
13849;SDS011;6995;52.618;13.488;2022-12-10T06:27:51;31.73;;;29.13;;
13849;SDS011;6995;52.618;13.488;2022-12-10T06:30:20;34.57;;;31.73;;
13849;SDS011;6995;52.618;13.488;2022-12-10T06:32:46;31.23;;;28.90;;
13849;SDS011;6995;52.618;13.488;2022-12-10T06:35:11;34.67;;;31.93;;
13849;SDS011;6995;52.618;13.488;2022-12-10T06:37:43;32.77;;;30.37;;
13849;SDS011;6995;52.618;13.488;2022-12-10T06:40:11;35.27;;;32.57;;
13849;SDS011;6995;52.618;13.488;2022-12-10T06:42:37;32.50;;;30.07;;
13849;SDS011;6995;52.618;13.488;2022-12-10T06:45:03;31.93;;;29.30;;
13849;SDS011;6995;52.618;13.488;2022-12-10T06:47:29;33.00;;;30.57;;
13849;SDS011;6995;52.618;13.488;2022-12-10T06:49:58;35.77;;;33.17;;
13849;SDS011;6995;52.618;13.488;2022-12-10T06:52:23;31.37;;;28.87;;
13849;SDS011;6995;52.618;13.488;2022-12-10T06:54:49;31.83;;;29.43;;
13849;SDS011;6995;52.618;13.488;2022-12-10T06:57:15;34.27;;;31.50;;
13849;SDS011;6995;52.618;13.488;2022-12-10T06:59:41;31.50;;;29.13;;
13849;SDS011;6995;52.618;13.488;2022-12-10T07:02:08;34.40;;;31.80;;
13849;SDS011;6995;52.618;13.488;2022-12-10T07:04:34;30.77;;;28.53;;
13849;SDS011;6995;52.618;13.488;2022-12-10T07:07:00;35.73;;;32.87;;
13849;SDS011;6995;52.618;13.488;2022-12-10T07:09:28;32.63;;;30.13;;
13849;SDS011;6995;52.618;13.488;2022-12-10T07:11:57;33.90;;;31.40;;
13849;SDS011;6995;52.618;13.488;2022-12-10T07:14:25;30.90;;;28.73;;
13849;SDS011;6995;52.618;13.488;2022-12-10T07:16:53;32.03;;;29.60;;
13849;SDS011;6995;52.618;13.488;2022-12-10T07:19:19;32.97;;;30.33;;
13849;SDS011;6995;52.618;13.488;2022-12-10T07:21:48;32.87;;;30.60;;
13849;SDS011;6995;52.618;13.488;2022-12-10T07:24:17;33.40;;;30.83;;
13849;SDS011;6995;52.618;13.488;2022-12-10T07:26:46;33.10;;;30.50;;
13849;SDS011;6995;52.618;13.488;2022-12-10T07:29:13;32.27;;;29.87;;
13849;SDS011;6995;52.618;13.488;2022-12-10T07:31:44;30.83;;;28.43;;
13849;SDS011;6995;52.618;13.488;2022-12-10T07:34:10;30.57;;;28.17;;
13849;SDS011;6995;52.618;13.488;2022-12-10T07:36:39;30.83;;;28.53;;
13849;SDS011;6995;52.618;13.488;2022-12-10T07:39:06;34.27;;;31.57;;
13849;SDS011;6995;52.618;13.488;2022-12-10T07:41:43;32.73;;;30.23;;
13849;SDS011;6995;52.618;13.488;2022-12-10T07:44:16;34.57;;;32.07;;
13849;SDS011;6995;52.618;13.488;2022-12-10T07:46:46;35.40;;;32.63;;
13849;SDS011;6995;52.618;13.488;2022-12-10T07:49:15;36.10;;;33.57;;
13849;SDS011;6995;52.618;13.488;2022-12-10T07:51:45;34.67;;;31.83;;
13849;SDS011;6995;52.618;13.488;2022-12-10T07:54:15;33.43;;;30.93;;
13849;SDS011;6995;52.618;13.488;2022-12-10T07:56:43;35.73;;;33.03;;
13849;SDS011;6995;52.618;13.488;2022-12-10T07:59:12;32.67;;;30.17;;
13849;SDS011;6995;52.618;13.488;2022-12-10T08:01:40;42.17;;;39.13;;
13849;SDS011;6995;52.618;13.488;2022-12-10T08:04:13;40.77;;;37.83;;
13849;SDS011;6995;52.618;13.488;2022-12-10T08:06:41;42.63;;;39.73;;
13849;SDS011;6995;52.618;13.488;2022-12-10T08:09:10;36.43;;;33.83;;
13849;SDS011;6995;52.618;13.488;2022-12-10T08:11:44;37.50;;;34.60;;
13849;SDS011;6995;52.618;13.488;2022-12-10T08:14:17;39.33;;;36.47;;
13849;SDS011;6995;52.618;13.488;2022-12-10T08:16:51;36.43;;;33.60;;
13849;SDS011;6995;52.618;13.488;2022-12-10T08:19:16;36.23;;;33.67;;
13849;SDS011;6995;52.618;13.488;2022-12-10T08:21:42;37.80;;;35.10;;
13849;SDS011;6995;52.618;13.488;2022-12-10T08:24:10;35.03;;;32.60;;
13849;SDS011;6995;52.618;13.488;2022-12-10T08:26:39;40.40;;;37.43;;
13849;SDS011;6995;52.618;13.488;2022-12-10T08:29:15;36.00;;;33.27;;
13849;SDS011;6995;52.618;13.488;2022-12-10T08:31:41;39.37;;;36.47;;
13849;SDS011;6995;52.618;13.488;2022-12-10T08:34:13;38.10;;;35.33;;
13849;SDS011;6995;52.618;13.488;2022-12-10T08:36:47;40.63;;;37.67;;
13849;SDS011;6995;52.618;13.488;2022-12-10T08:42:07;34.10;;;31.60;;
13849;SDS011;6995;52.618;13.488;2022-12-10T08:44:33;34.80;;;32.20;;
13849;SDS011;6995;52.618;13.488;2022-12-10T08:47:01;36.13;;;33.53;;
13849;SDS011;6995;52.618;13.488;2022-12-10T08:49:27;32.80;;;30.23;;
13849;SDS011;6995;52.618;13.488;2022-12-10T08:51:53;34.23;;;31.67;;
13849;SDS011;6995;52.618;13.488;2022-12-10T08:54:21;36.00;;;33.33;;
13849;SDS011;6995;52.618;13.488;2022-12-10T08:56:53;35.90;;;33.10;;
13849;SDS011;6995;52.618;13.488;2022-12-10T08:59:31;34.17;;;31.47;;
13849;SDS011;6995;52.618;13.488;2022-12-10T09:02:02;36.63;;;33.83;;
13849;SDS011;6995;52.618;13.488;2022-12-10T09:04:28;36.47;;;33.80;;
13849;SDS011;6995;52.618;13.488;2022-12-10T09:07:07;36.13;;;33.33;;
13849;SDS011;6995;52.618;13.488;2022-12-10T09:09:41;36.37;;;33.27;;
13849;SDS011;6995;52.618;13.488;2022-12-10T09:12:06;36.70;;;33.93;;
13849;SDS011;6995;52.618;13.488;2022-12-10T09:14:32;36.70;;;33.80;;
13849;SDS011;6995;52.618;13.488;2022-12-10T09:16:58;34.63;;;32.03;;
13849;SDS011;6995;52.618;13.488;2022-12-10T09:19:27;35.90;;;32.93;;
13849;SDS011;6995;52.618;13.488;2022-12-10T09:21:56;36.57;;;33.67;;
13849;SDS011;6995;52.618;13.488;2022-12-10T09:24:28;36.97;;;33.87;;
13849;SDS011;6995;52.618;13.488;2022-12-10T09:26:56;35.10;;;32.37;;
13849;SDS011;6995;52.618;13.488;2022-12-10T09:29:22;33.87;;;31.13;;
13849;SDS011;6995;52.618;13.488;2022-12-10T09:31:51;37.37;;;34.43;;
13849;SDS011;6995;52.618;13.488;2022-12-10T09:34:32;34.93;;;32.17;;
13849;SDS011;6995;52.618;13.488;2022-12-10T09:37:04;35.93;;;33.33;;
13849;SDS011;6995;52.618;13.488;2022-12-10T09:39:38;36.43;;;33.47;;
13849;SDS011;6995;52.618;13.488;2022-12-10T09:45:00;35.77;;;32.87;;
13849;SDS011;6995;52.618;13.488;2022-12-10T09:53:26;36.67;;;33.97;;
13849;SDS011;6995;52.618;13.488;2022-12-10T09:55:55;36.87;;;33.97;;
13849;SDS011;6995;52.618;13.488;2022-12-10T09:58:24;34.60;;;31.90;;
13849;SDS011;6995;52.618;13.488;2022-12-10T10:00:59;37.83;;;34.87;;
13849;SDS011;6995;52.618;13.488;2022-12-10T10:03:31;35.90;;;33.07;;
13849;SDS011;6995;52.618;13.488;2022-12-10T10:06:05;36.47;;;33.73;;
13849;SDS011;6995;52.618;13.488;2022-12-10T10:08:36;35.90;;;33.10;;
13849;SDS011;6995;52.618;13.488;2022-12-10T10:11:08;37.33;;;34.43;;
13849;SDS011;6995;52.618;13.488;2022-12-10T10:13:49;36.10;;;33.27;;
13849;SDS011;6995;52.618;13.488;2022-12-10T10:16:20;36.33;;;33.33;;
13849;SDS011;6995;52.618;13.488;2022-12-10T10:18:55;35.00;;;32.13;;
13849;SDS011;6995;52.618;13.488;2022-12-10T10:21:28;38.50;;;35.40;;
13849;SDS011;6995;52.618;13.488;2022-12-10T10:24:18;34.70;;;32.20;;
13849;SDS011;6995;52.618;13.488;2022-12-10T10:26:57;35.37;;;32.47;;
13849;SDS011;6995;52.618;13.488;2022-12-10T10:29:26;36.10;;;33.33;;
13849;SDS011;6995;52.618;13.488;2022-12-10T10:32:13;32.87;;;30.33;;
13849;SDS011;6995;52.618;13.488;2022-12-10T10:34:43;35.90;;;32.93;;
13849;SDS011;6995;52.618;13.488;2022-12-10T10:37:16;34.77;;;31.90;;
13849;SDS011;6995;52.618;13.488;2022-12-10T10:40:23;38.10;;;34.83;;
13849;SDS011;6995;52.618;13.488;2022-12-10T10:46:32;38.50;;;35.37;;
13849;SDS011;6995;52.618;13.488;2022-12-10T10:49:13;34.97;;;32.17;;
13849;SDS011;6995;52.618;13.488;2022-12-10T10:52:11;37.23;;;34.23;;
13849;SDS011;6995;52.618;13.488;2022-12-10T10:54:41;34.87;;;32.07;;
13849;SDS011;6995;52.618;13.488;2022-12-10T11:00:23;35.30;;;32.47;;
13849;SDS011;6995;52.618;13.488;2022-12-10T11:02:48;39.17;;;36.07;;
13849;SDS011;6995;52.618;13.488;2022-12-10T11:05:21;38.03;;;34.93;;
13849;SDS011;6995;52.618;13.488;2022-12-10T11:08:00;37.37;;;34.57;;
13849;SDS011;6995;52.618;13.488;2022-12-10T11:10:40;36.50;;;33.50;;
13849;SDS011;6995;52.618;13.488;2022-12-10T11:13:32;34.07;;;31.37;;
13849;SDS011;6995;52.618;13.488;2022-12-10T11:18:40;35.73;;;33.03;;
13849;SDS011;6995;52.618;13.488;2022-12-10T11:21:21;36.53;;;33.67;;
13849;SDS011;6995;52.618;13.488;2022-12-10T11:24:00;33.90;;;31.30;;
13849;SDS011;6995;52.618;13.488;2022-12-10T11:27:04;34.67;;;31.97;;
13849;SDS011;6995;52.618;13.488;2022-12-10T11:29:46;35.70;;;32.80;;
13849;SDS011;6995;52.618;13.488;2022-12-10T11:35:50;38.27;;;35.30;;
13849;SDS011;6995;52.618;13.488;2022-12-10T11:38:41;34.93;;;32.20;;
13849;SDS011;6995;52.618;13.488;2022-12-10T11:41:24;35.87;;;32.80;;
13849;SDS011;6995;52.618;13.488;2022-12-10T11:44:21;35.30;;;32.70;;
13849;SDS011;6995;52.618;13.488;2022-12-10T11:50:54;32.57;;;30.07;;
13849;SDS011;6995;52.618;13.488;2022-12-10T11:56:30;33.70;;;31.20;;
13849;SDS011;6995;52.618;13.488;2022-12-10T12:10:07;34.60;;;32.23;;
13849;SDS011;6995;52.618;13.488;2022-12-10T12:18:57;32.63;;;30.33;;
13849;SDS011;6995;52.618;13.488;2022-12-10T12:21:34;34.37;;;31.57;;
13849;SDS011;6995;52.618;13.488;2022-12-10T12:24:33;34.03;;;31.20;;
13849;SDS011;6995;52.618;13.488;2022-12-10T12:28:10;35.30;;;32.73;;
13849;SDS011;6995;52.618;13.488;2022-12-10T12:31:34;45.17;;;41.43;;
13849;SDS011;6995;52.618;13.488;2022-12-10T12:51:38;38.07;;;35.13;;
13849;SDS011;6995;52.618;13.488;2022-12-10T12:58:39;33.30;;;30.50;;
13849;SDS011;6995;52.618;13.488;2022-12-10T13:04:19;36.57;;;33.60;;
13849;SDS011;6995;52.618;13.488;2022-12-10T13:13:44;38.07;;;35.10;;
13849;SDS011;6995;52.618;13.488;2022-12-10T13:19:45;37.10;;;33.87;;
13849;SDS011;6995;52.618;13.488;2022-12-10T13:25:19;43.70;;;40.00;;
13849;SDS011;6995;52.618;13.488;2022-12-10T13:41:12;40.37;;;36.70;;
13849;SDS011;6995;52.618;13.488;2022-12-10T13:47:47;38.23;;;34.53;;
13849;SDS011;6995;52.618;13.488;2022-12-10T13:50:30;43.23;;;39.00;;
13849;SDS011;6995;52.618;13.488;2022-12-10T13:53:23;36.17;;;33.20;;
13849;SDS011;6995;52.618;13.488;2022-12-10T14:13:06;38.10;;;34.50;;
13849;SDS011;6995;52.618;13.488;2022-12-10T14:26:06;40.03;;;35.93;;
13849;SDS011;6995;52.618;13.488;2022-12-10T14:29:26;37.33;;;33.43;;
13849;SDS011;6995;52.618;13.488;2022-12-10T14:39:26;43.67;;;39.13;;
13849;SDS011;6995;52.618;13.488;2022-12-10T14:41:55;42.53;;;38.37;;
13849;SDS011;6995;52.618;13.488;2022-12-10T14:47:44;48.40;;;43.87;;
13849;SDS011;6995;52.618;13.488;2022-12-10T15:14:14;44.13;;;39.47;;
13849;SDS011;6995;52.618;13.488;2022-12-10T15:16:46;42.10;;;37.57;;
13849;SDS011;6995;52.618;13.488;2022-12-10T15:19:39;48.10;;;35.47;;
13849;SDS011;6995;52.618;13.488;2022-12-10T15:22:21;50.77;;;38.50;;
13849;SDS011;6995;52.618;13.488;2022-12-10T15:25:26;43.70;;;38.93;;
13849;SDS011;6995;52.618;13.488;2022-12-10T15:32:06;48.93;;;39.00;;
13849;SDS011;6995;52.618;13.488;2022-12-10T15:38:21;41.90;;;37.07;;
13849;SDS011;6995;52.618;13.488;2022-12-10T15:47:01;52.07;;;35.90;;
13849;SDS011;6995;52.618;13.488;2022-12-10T15:49:45;53.20;;;39.53;;
13849;SDS011;6995;52.618;13.488;2022-12-10T15:52:36;54.47;;;35.47;;
13849;SDS011;6995;52.618;13.488;2022-12-10T15:58:23;51.87;;;34.13;;
13849;SDS011;6995;52.618;13.488;2022-12-10T16:03:57;50.20;;;38.97;;
13849;SDS011;6995;52.618;13.488;2022-12-10T16:06:33;61.30;;;41.40;;
13849;SDS011;6995;52.618;13.488;2022-12-10T16:09:09;53.50;;;36.60;;
13849;SDS011;6995;52.618;13.488;2022-12-10T16:11:45;62.00;;;43.20;;
13849;SDS011;6995;52.618;13.488;2022-12-10T16:14:25;58.27;;;41.80;;
13849;SDS011;6995;52.618;13.488;2022-12-10T16:17:28;66.43;;;42.23;;
13849;SDS011;6995;52.618;13.488;2022-12-10T16:23:26;51.60;;;37.47;;
13849;SDS011;6995;52.618;13.488;2022-12-10T16:26:08;50.53;;;36.53;;
13849;SDS011;6995;52.618;13.488;2022-12-10T16:28:46;54.87;;;38.90;;
13849;SDS011;6995;52.618;13.488;2022-12-10T16:31:36;46.20;;;39.03;;
13849;SDS011;6995;52.618;13.488;2022-12-10T16:34:48;54.07;;;37.60;;
13849;SDS011;6995;52.618;13.488;2022-12-10T16:37:19;54.33;;;38.10;;
13849;SDS011;6995;52.618;13.488;2022-12-10T16:39:57;61.97;;;41.87;;
13849;SDS011;6995;52.618;13.488;2022-12-10T16:42:27;63.00;;;38.27;;
13849;SDS011;6995;52.618;13.488;2022-12-10T16:45:05;56.87;;;37.27;;
13849;SDS011;6995;52.618;13.488;2022-12-10T16:47:54;63.30;;;47.80;;
13849;SDS011;6995;52.618;13.488;2022-12-10T16:50:39;56.20;;;41.77;;
13849;SDS011;6995;52.618;13.488;2022-12-10T16:53:25;56.83;;;39.30;;
13849;SDS011;6995;52.618;13.488;2022-12-10T16:56:00;54.33;;;38.53;;
13849;SDS011;6995;52.618;13.488;2022-12-10T16:58:28;63.40;;;40.80;;
13849;SDS011;6995;52.618;13.488;2022-12-10T17:04:10;69.93;;;43.47;;
13849;SDS011;6995;52.618;13.488;2022-12-10T17:07:16;56.30;;;36.63;;
13849;SDS011;6995;52.618;13.488;2022-12-10T17:09:56;60.63;;;38.10;;
13849;SDS011;6995;52.618;13.488;2022-12-10T17:12:24;62.33;;;41.90;;
13849;SDS011;6995;52.618;13.488;2022-12-10T17:15:02;63.67;;;43.17;;
13849;SDS011;6995;52.618;13.488;2022-12-10T17:17:33;65.57;;;43.97;;
13849;SDS011;6995;52.618;13.488;2022-12-10T17:20:02;66.57;;;41.00;;
13849;SDS011;6995;52.618;13.488;2022-12-10T17:22:41;49.03;;;40.17;;
13849;SDS011;6995;52.618;13.488;2022-12-10T17:25:16;69.13;;;44.27;;
13849;SDS011;6995;52.618;13.488;2022-12-10T17:27:50;57.30;;;39.50;;
13849;SDS011;6995;52.618;13.488;2022-12-10T17:30:32;63.90;;;38.53;;
13849;SDS011;6995;52.618;13.488;2022-12-10T17:36:32;59.70;;;39.40;;
13849;SDS011;6995;52.618;13.488;2022-12-10T17:46:24;48.63;;;40.27;;
13849;SDS011;6995;52.618;13.488;2022-12-10T17:49:40;50.33;;;36.03;;
13849;SDS011;6995;52.618;13.488;2022-12-10T17:52:37;51.00;;;36.87;;
13849;SDS011;6995;52.618;13.488;2022-12-10T17:55:11;59.73;;;39.63;;
13849;SDS011;6995;52.618;13.488;2022-12-10T17:58:32;51.30;;;38.27;;
13849;SDS011;6995;52.618;13.488;2022-12-10T18:01:30;49.93;;;37.93;;
13849;SDS011;6995;52.618;13.488;2022-12-10T18:04:13;59.37;;;42.27;;
13849;SDS011;6995;52.618;13.488;2022-12-10T18:08:09;60.90;;;40.90;;
13849;SDS011;6995;52.618;13.488;2022-12-10T18:11:26;53.50;;;36.20;;
13849;SDS011;6995;52.618;13.488;2022-12-10T18:38:26;44.03;;;39.00;;
13849;SDS011;6995;52.618;13.488;2022-12-10T18:45:41;59.00;;;43.90;;
13849;SDS011;6995;52.618;13.488;2022-12-10T18:55:31;41.30;;;36.70;;
13849;SDS011;6995;52.618;13.488;2022-12-10T18:58:41;41.83;;;37.57;;
13849;SDS011;6995;52.618;13.488;2022-12-10T19:13:15;48.50;;;40.33;;
13849;SDS011;6995;52.618;13.488;2022-12-10T19:19:57;45.37;;;35.83;;
13849;SDS011;6995;52.618;13.488;2022-12-10T19:22:59;41.40;;;37.20;;
13849;SDS011;6995;52.618;13.488;2022-12-10T19:36:29;44.07;;;39.27;;
13849;SDS011;6995;52.618;13.488;2022-12-10T19:39:40;42.33;;;38.03;;
13849;SDS011;6995;52.618;13.488;2022-12-10T19:42:16;40.83;;;35.87;;
13849;SDS011;6995;52.618;13.488;2022-12-10T19:45:06;43.93;;;38.07;;
13849;SDS011;6995;52.618;13.488;2022-12-10T19:47:53;42.17;;;37.57;;
13849;SDS011;6995;52.618;13.488;2022-12-10T19:50:40;49.10;;;43.47;;
13849;SDS011;6995;52.618;13.488;2022-12-10T19:56:56;46.33;;;41.03;;
13849;SDS011;6995;52.618;13.488;2022-12-10T19:59:36;46.60;;;41.80;;
13849;SDS011;6995;52.618;13.488;2022-12-10T20:02:24;50.93;;;41.60;;
13849;SDS011;6995;52.618;13.488;2022-12-10T20:05:33;51.27;;;43.00;;
13849;SDS011;6995;52.618;13.488;2022-12-10T20:08:10;52.80;;;38.93;;
13849;SDS011;6995;52.618;13.488;2022-12-10T20:10:58;45.67;;;38.10;;
13849;SDS011;6995;52.618;13.488;2022-12-10T20:13:29;44.83;;;40.13;;
13849;SDS011;6995;52.618;13.488;2022-12-10T20:16:16;46.20;;;41.33;;
13849;SDS011;6995;52.618;13.488;2022-12-10T20:19:25;52.17;;;40.40;;
13849;SDS011;6995;52.618;13.488;2022-12-10T20:22:27;48.47;;;37.43;;
13849;SDS011;6995;52.618;13.488;2022-12-10T20:31:10;45.70;;;36.37;;
13849;SDS011;6995;52.618;13.488;2022-12-10T20:33:47;43.27;;;37.50;;
13849;SDS011;6995;52.618;13.488;2022-12-10T20:36:29;44.63;;;39.27;;
13849;SDS011;6995;52.618;13.488;2022-12-10T20:42:06;40.73;;;35.33;;
13849;SDS011;6995;52.618;13.488;2022-12-10T20:44:51;44.60;;;40.00;;
13849;SDS011;6995;52.618;13.488;2022-12-10T20:50:56;40.90;;;36.80;;
13849;SDS011;6995;52.618;13.488;2022-12-10T20:53:29;48.13;;;37.70;;
13849;SDS011;6995;52.618;13.488;2022-12-10T20:56:16;39.80;;;35.80;;
13849;SDS011;6995;52.618;13.488;2022-12-10T20:59:30;43.73;;;39.27;;
13849;SDS011;6995;52.618;13.488;2022-12-10T21:08:54;38.87;;;34.63;;
13849;SDS011;6995;52.618;13.488;2022-12-10T21:11:32;39.47;;;34.60;;
13849;SDS011;6995;52.618;13.488;2022-12-10T21:14:09;41.87;;;37.27;;
13849;SDS011;6995;52.618;13.488;2022-12-10T21:17:04;43.40;;;39.00;;
13849;SDS011;6995;52.618;13.488;2022-12-10T21:19:48;46.93;;;39.77;;
13849;SDS011;6995;52.618;13.488;2022-12-10T21:28:20;40.47;;;36.10;;
13849;SDS011;6995;52.618;13.488;2022-12-10T21:30:53;39.60;;;35.53;;
13849;SDS011;6995;52.618;13.488;2022-12-10T21:33:25;41.07;;;36.63;;
13849;SDS011;6995;52.618;13.488;2022-12-10T21:35:59;44.23;;;38.73;;
13849;SDS011;6995;52.618;13.488;2022-12-10T21:38:30;47.43;;;38.97;;
13849;SDS011;6995;52.618;13.488;2022-12-10T21:40:55;39.30;;;35.13;;
13849;SDS011;6995;52.618;13.488;2022-12-10T21:43:24;43.20;;;37.40;;
13849;SDS011;6995;52.618;13.488;2022-12-10T21:45:54;37.80;;;33.83;;
13849;SDS011;6995;52.618;13.488;2022-12-10T21:48:29;39.23;;;35.10;;
13849;SDS011;6995;52.618;13.488;2022-12-10T21:51:03;42.03;;;38.03;;
13849;SDS011;6995;52.618;13.488;2022-12-10T21:53:29;37.20;;;33.80;;
13849;SDS011;6995;52.618;13.488;2022-12-10T21:56:09;36.60;;;32.93;;
13849;SDS011;6995;52.618;13.488;2022-12-10T21:58:42;36.73;;;33.33;;